createdAt,value
2023-04-15T00:00:36.137Z,0.6375
2023-04-15T00:01:37.671Z,0.6356
2023-04-15T00:02:39.156Z,0.6437
2023-04-15T00:03:40.869Z,0.6424
2023-04-15T00:04:41.982Z,0.6373
2023-04-15T00:05:43.406Z,0.6369
2023-04-15T00:06:44.809Z,0.6345
2023-04-15T00:07:47.215Z,0.6288
2023-04-15T00:08:47.688Z,0.6258
2023-04-15T00:09:54.195Z,0.6266
2023-04-15T00:10:50.606Z,0.6263
2023-04-15T00:11:52.031Z,0.6263
2023-04-15T00:12:53.437Z,0.6266
2023-04-15T00:13:54.962Z,0.6280
2023-04-15T00:14:56.359Z,0.6295
2023-04-15T00:15:57.831Z,0.6308
2023-04-15T00:16:59.250Z,0.6311
2023-04-15T00:18:00.730Z,0.6316
2023-04-15T00:19:02.363Z,0.6345
2023-04-15T00:20:03.606Z,0.6316
2023-04-15T00:21:05.044Z,0.6292
2023-04-15T00:22:06.406Z,0.6286
2023-04-15T00:23:07.834Z,0.6290
2023-04-15T00:24:09.425Z,0.6272
2023-04-15T00:25:10.798Z,0.6269
2023-04-15T00:26:12.287Z,0.6259
2023-04-15T00:27:13.655Z,0.6263
2023-04-15T00:28:15.173Z,0.6254
2023-04-15T00:29:16.577Z,0.6330
2023-04-15T00:30:18.058Z,0.6478
2023-04-15T00:31:19.442Z,0.6533
2023-04-15T00:32:20.882Z,0.6559
2023-04-15T00:33:22.306Z,0.6649
2023-04-15T00:34:24.235Z,0.6748
2023-04-15T00:35:25.219Z,0.6770
2023-04-15T00:36:26.696Z,0.6782
2023-04-15T00:37:28.099Z,0.6822
2023-04-15T00:38:29.518Z,0.6859
2023-04-15T00:39:31.202Z,0.6804
2023-04-15T00:40:32.478Z,0.6749
2023-04-15T00:41:34.599Z,0.6742
2023-04-15T00:42:35.370Z,0.6741
2023-04-15T00:43:36.687Z,0.6760
2023-04-15T00:44:38.271Z,0.6769
2023-04-15T00:45:39.670Z,0.6746
2023-04-15T00:46:41.658Z,0.6740
2023-04-15T00:47:42.507Z,0.6742
2023-04-15T00:48:44.690Z,0.6739
2023-04-15T00:49:45.516Z,0.6738
2023-04-15T00:50:47.255Z,0.6868
2023-04-15T00:51:48.338Z,0.6947
2023-04-15T00:52:49.753Z,0.6882
2023-04-15T00:53:51.166Z,0.6788
2023-04-15T00:54:52.671Z,0.6776
2023-04-15T00:55:54.655Z,0.6798
2023-04-15T00:56:55.676Z,0.6706
2023-04-15T00:57:57.040Z,0.6612
2023-04-15T00:58:58.668Z,0.6565
2023-04-15T00:59:59.929Z,0.6516
2023-04-15T01:01:01.424Z,0.6419
2023-04-15T01:02:02.904Z,0.6490
2023-04-15T01:03:04.351Z,0.6507
2023-04-15T01:04:06.706Z,0.6535
2023-04-15T01:05:07.138Z,0.6504
2023-04-15T01:06:08.748Z,0.6531
2023-04-15T01:07:10.305Z,0.6538
2023-04-15T01:08:11.411Z,0.6530
2023-04-15T01:09:12.918Z,0.6528
2023-04-15T01:10:14.274Z,0.6544
2023-04-15T01:11:16.214Z,0.6547
2023-04-15T01:12:17.222Z,0.6521
2023-04-15T01:13:18.685Z,0.6516
2023-04-15T01:14:22.661Z,0.6519
2023-04-15T01:15:21.541Z,0.6513
2023-04-15T01:16:23.054Z,0.6507
2023-04-15T01:17:24.506Z,0.6560
2023-04-15T01:18:25.854Z,0.6655
2023-04-15T01:19:27.296Z,0.6691
2023-04-15T01:20:28.720Z,0.6814
2023-04-15T01:21:30.291Z,0.6824
2023-04-15T01:22:32.129Z,0.6820
2023-04-15T01:23:33.040Z,0.6692
2023-04-15T01:24:34.404Z,0.6636
2023-04-15T01:25:35.933Z,0.6706
2023-04-15T01:26:37.401Z,0.6713
2023-04-15T01:27:38.857Z,0.6704
2023-04-15T01:28:40.242Z,0.6734
2023-04-15T01:29:41.726Z,0.6762
2023-04-15T01:30:43.091Z,0.6726
2023-04-15T01:31:44.659Z,0.6726
2023-04-15T01:32:46.090Z,0.6701
2023-04-15T01:33:47.433Z,0.6693
2023-04-15T01:34:51.690Z,0.6681
2023-04-15T01:35:51.215Z,0.6655
2023-04-15T01:36:51.756Z,0.6678
2023-04-15T01:37:53.257Z,0.6683
2023-04-15T01:38:54.692Z,0.6689
2023-04-15T01:39:56.082Z,0.6665
2023-04-15T01:40:57.647Z,0.6864
2023-04-15T01:41:58.964Z,0.6954
2023-04-15T01:43:00.469Z,0.6982
2023-04-15T01:44:01.831Z,0.7011
2023-04-15T01:45:03.286Z,0.7028
2023-04-15T01:46:04.721Z,0.7102
2023-04-15T01:47:06.169Z,0.7175
2023-04-15T01:48:07.648Z,0.7162
2023-04-15T01:49:09.181Z,0.7152
2023-04-15T01:50:10.472Z,0.7168
2023-04-15T01:51:11.924Z,0.7152
2023-04-15T01:52:13.327Z,0.7093
2023-04-15T01:53:14.886Z,0.7054
2023-04-15T01:54:16.237Z,0.7039
2023-04-15T01:55:17.781Z,0.7030
2023-04-15T01:56:19.140Z,0.7034
2023-04-15T01:57:20.559Z,0.7041
2023-04-15T01:58:22.214Z,0.7003
2023-04-15T01:59:23.658Z,0.6998
2023-04-15T02:00:25.610Z,0.6976
2023-04-15T02:01:26.484Z,0.6967
2023-04-15T02:02:28.678Z,0.6969
2023-04-15T02:03:29.367Z,0.6973
2023-04-15T02:04:31.153Z,0.6979
2023-04-15T02:05:32.122Z,0.6985
2023-04-15T02:06:33.615Z,0.6990
2023-04-15T02:07:35.052Z,0.6989
2023-04-15T02:08:36.602Z,0.6976
2023-04-15T02:09:37.934Z,0.6904
2023-04-15T02:10:39.666Z,0.6940
2023-04-15T02:11:40.765Z,0.6893
2023-04-15T02:12:42.206Z,0.7050
2023-04-15T02:13:43.725Z,0.7059
2023-04-15T02:14:45.100Z,0.6938
2023-04-15T02:15:46.537Z,0.6868
2023-04-15T02:16:48.011Z,0.6869
2023-04-15T02:17:50.200Z,0.6878
2023-04-15T02:18:50.868Z,0.6910
2023-04-15T02:19:52.716Z,0.6924
2023-04-15T02:20:53.731Z,0.6906
2023-04-15T02:21:55.164Z,0.6876
2023-04-15T02:22:56.562Z,0.6909
2023-04-15T02:23:58.141Z,0.6936
2023-04-15T02:24:59.687Z,0.6932
2023-04-15T02:26:00.924Z,0.6909
2023-04-15T02:27:02.334Z,0.6898
2023-04-15T02:28:03.802Z,0.6913
2023-04-15T02:29:05.293Z,0.6930
2023-04-15T02:30:06.777Z,0.6998
2023-04-15T02:31:08.218Z,0.6938
2023-04-15T02:32:09.633Z,0.6855
2023-04-15T02:33:11.023Z,0.6628
2023-04-15T02:34:12.427Z,0.6500
2023-04-15T02:35:13.978Z,0.6487
2023-04-15T02:36:15.686Z,0.6474
2023-04-15T02:37:18.715Z,0.6451
2023-04-15T02:38:18.187Z,0.6471
2023-04-15T02:39:20.611Z,0.6446
2023-04-15T02:40:21.221Z,0.6445
2023-04-15T02:41:22.527Z,0.6434
2023-04-15T02:42:24.164Z,0.6421
2023-04-15T02:43:25.380Z,0.6446
2023-04-15T02:44:26.844Z,0.6485
2023-04-15T02:45:28.281Z,0.6466
2023-04-15T02:46:29.855Z,0.6448
2023-04-15T02:47:31.221Z,0.6431
2023-04-15T02:48:32.632Z,0.6436
2023-04-15T02:49:34.043Z,0.6433
2023-04-15T02:50:36.151Z,0.6425
2023-04-15T02:51:37.016Z,0.6415
2023-04-15T02:52:38.453Z,0.6415
2023-04-15T02:53:39.883Z,0.6412
2023-04-15T02:54:41.288Z,0.6412
2023-04-15T02:55:42.699Z,0.6410
2023-04-15T02:56:44.158Z,0.6405
2023-04-15T02:57:45.568Z,0.6388
2023-04-15T02:58:47.105Z,0.6383
2023-04-15T02:59:48.466Z,0.6383
2023-04-15T03:00:49.940Z,0.6383
2023-04-15T03:01:51.564Z,0.6365
2023-04-15T03:02:53.329Z,0.6346
2023-04-15T03:03:54.219Z,0.6344
2023-04-15T03:04:55.652Z,0.6353
2023-04-15T03:05:57.088Z,0.6357
2023-04-15T03:06:58.731Z,0.6339
2023-04-15T03:08:00.059Z,0.6335
2023-04-15T03:09:01.692Z,0.6340
2023-04-15T03:10:02.817Z,0.6343
2023-04-15T03:11:04.321Z,0.6338
2023-04-15T03:12:06.138Z,0.6346
2023-04-15T03:13:07.247Z,0.6346
2023-04-15T03:14:08.632Z,0.6336
2023-04-15T03:15:10.048Z,0.6330
2023-04-15T03:16:12.139Z,0.6294
2023-04-15T03:17:13.047Z,0.6285
2023-04-15T03:18:14.468Z,0.6285
2023-04-15T03:19:16.185Z,0.6284
2023-04-15T03:20:17.284Z,0.6283
2023-04-15T03:21:18.835Z,0.6282
2023-04-15T03:22:20.254Z,0.6271
2023-04-15T03:23:21.735Z,0.6268
2023-04-15T03:24:23.139Z,0.6268
2023-04-15T03:25:25.232Z,0.6266
2023-04-15T03:26:25.969Z,0.6273
2023-04-15T03:27:27.489Z,0.6279
2023-04-15T03:28:28.912Z,0.6286
2023-04-15T03:29:30.386Z,0.6278
2023-04-15T03:30:31.796Z,0.6266
2023-04-15T03:31:33.314Z,0.6266
2023-04-15T03:32:34.682Z,0.6264
2023-04-15T03:33:36.265Z,0.6256
2023-04-15T03:34:37.741Z,0.6241
2023-04-15T03:35:39.012Z,0.6215
2023-04-15T03:36:40.407Z,0.6216
2023-04-15T03:37:44.725Z,0.6204
2023-04-15T03:38:43.285Z,0.6200
2023-04-15T03:39:44.767Z,0.6192
2023-04-15T03:40:46.131Z,0.6190
2023-04-15T03:41:47.593Z,0.6206
2023-04-15T03:42:49.050Z,0.6404
2023-04-15T03:43:50.775Z,0.6597
2023-04-15T03:44:51.912Z,0.6523
2023-04-15T03:45:53.380Z,0.6419
2023-04-15T03:46:54.825Z,0.6229
2023-04-15T03:47:56.555Z,0.6181
2023-04-15T03:48:57.739Z,0.6162
2023-04-15T03:49:59.151Z,0.6134
2023-04-15T03:51:00.598Z,0.6182
2023-04-15T03:52:01.965Z,0.6201
2023-04-15T03:53:03.493Z,0.6216
2023-04-15T03:54:04.912Z,0.6275
2023-04-15T03:55:06.393Z,0.6290
2023-04-15T03:56:07.743Z,0.6291
2023-04-15T03:57:09.227Z,0.6285
2023-04-15T03:58:10.607Z,0.6280
2023-04-15T03:59:12.125Z,0.6299
2023-04-15T04:00:13.562Z,0.6286
2023-04-15T04:01:14.987Z,0.6272
2023-04-15T04:02:16.465Z,0.6261
2023-04-15T04:03:18.017Z,0.6256
2023-04-15T04:04:19.357Z,0.6266
2023-04-15T04:05:20.780Z,0.6273
2023-04-15T04:06:22.150Z,0.6282
2023-04-15T04:07:23.633Z,0.6266
2023-04-15T04:08:25.011Z,0.6264
2023-04-15T04:09:26.546Z,0.6274
2023-04-15T04:10:27.960Z,0.6265
2023-04-15T04:11:29.370Z,0.6253
2023-04-15T04:12:30.809Z,0.6231
2023-04-15T04:13:32.251Z,0.6239
2023-04-15T04:14:33.719Z,0.6223
2023-04-15T04:15:35.219Z,0.6216
2023-04-15T04:16:36.637Z,0.6208
2023-04-15T04:17:38.068Z,0.6201
2023-04-15T04:18:39.406Z,0.6187
2023-04-15T04:19:40.916Z,0.6175
2023-04-15T04:20:42.805Z,0.6177
2023-04-15T04:21:43.796Z,0.6177
2023-04-15T04:22:45.233Z,0.6173
2023-04-15T04:23:46.666Z,0.6155
2023-04-15T04:24:48.105Z,0.6159
2023-04-15T04:25:49.576Z,0.6156
2023-04-15T04:26:50.893Z,0.6137
2023-04-15T04:27:52.421Z,0.6125
2023-04-15T04:28:53.741Z,0.6121
2023-04-15T04:29:55.248Z,0.6121
2023-04-15T04:30:56.714Z,0.6126
2023-04-15T04:31:58.148Z,0.6122
2023-04-15T04:32:59.594Z,0.6107
2023-04-15T04:34:00.979Z,0.6098
2023-04-15T04:35:02.403Z,0.6097
2023-04-15T04:36:03.877Z,0.6087
2023-04-15T04:37:05.229Z,0.6087
2023-04-15T04:38:06.761Z,0.6081
2023-04-15T04:39:08.078Z,0.6072
2023-04-15T04:40:09.636Z,0.6072
2023-04-15T04:41:11.081Z,0.6063
2023-04-15T04:42:12.472Z,0.6060
2023-04-15T04:43:13.893Z,0.6038
2023-04-15T04:44:15.316Z,0.6037
2023-04-15T04:45:16.781Z,0.6042
2023-04-15T04:46:18.349Z,0.6044
2023-04-15T04:47:19.648Z,0.6030
2023-04-15T04:48:21.070Z,0.6024
2023-04-15T04:49:22.464Z,0.6024
2023-04-15T04:50:24.025Z,0.6032
2023-04-15T04:51:25.478Z,0.6035
2023-04-15T04:52:26.777Z,0.6040
2023-04-15T04:53:28.303Z,0.6046
2023-04-15T04:54:29.685Z,0.6056
2023-04-15T04:55:31.361Z,0.6052
2023-04-15T04:56:32.609Z,0.6048
2023-04-15T04:57:34.028Z,0.6055
2023-04-15T04:58:35.559Z,0.6048
2023-04-15T04:59:37.084Z,0.6051
2023-04-15T05:00:38.532Z,0.6063
2023-04-15T05:01:39.983Z,0.6082
2023-04-15T05:02:41.435Z,0.6172
2023-04-15T05:03:42.946Z,0.6137
2023-04-15T05:04:44.255Z,0.6273
2023-04-15T05:05:45.651Z,0.6387
2023-04-15T05:06:47.111Z,0.6516
2023-04-15T05:07:48.580Z,0.6525
2023-04-15T05:08:49.857Z,0.6465
2023-04-15T05:09:51.393Z,0.6450
2023-04-15T05:10:52.777Z,0.6396
2023-04-15T05:11:54.347Z,0.6385
2023-04-15T05:12:55.630Z,0.6398
2023-04-15T05:13:57.107Z,0.6400
2023-04-15T05:14:58.476Z,0.6389
2023-04-15T05:16:00.118Z,0.6382
2023-04-15T05:17:01.756Z,0.6381
2023-04-15T05:18:02.929Z,0.6369
2023-04-15T05:19:04.296Z,0.6380
2023-04-15T05:20:06.268Z,0.6386
2023-04-15T05:21:07.201Z,0.6394
2023-04-15T05:22:08.580Z,0.6395
2023-04-15T05:23:10.051Z,0.6400
2023-04-15T05:24:11.484Z,0.6394
2023-04-15T05:25:12.930Z,0.6381
2023-04-15T05:26:14.347Z,0.6375
2023-04-15T05:27:16.333Z,0.6382
2023-04-15T05:28:17.200Z,0.6381
2023-04-15T05:29:18.660Z,0.6368
2023-04-15T05:30:20.043Z,0.6369
2023-04-15T05:31:21.646Z,0.6355
2023-04-15T05:32:23.324Z,0.6352
2023-04-15T05:33:24.408Z,0.6358
2023-04-15T05:34:25.785Z,0.6364
2023-04-15T05:35:27.280Z,0.6378
2023-04-15T05:36:28.757Z,0.6378
2023-04-15T05:37:30.216Z,0.6364
2023-04-15T05:38:31.564Z,0.6366
2023-04-15T05:39:33.029Z,0.6372
2023-04-15T05:40:34.429Z,0.6375
2023-04-15T05:41:35.987Z,0.6375
2023-04-15T05:42:37.360Z,0.6368
2023-04-15T05:43:38.778Z,0.6344
2023-04-15T05:44:40.209Z,0.6344
2023-04-15T05:45:41.687Z,0.6344
2023-04-15T05:46:43.111Z,0.6344
2023-04-15T05:47:44.696Z,0.6337
2023-04-15T05:48:45.920Z,0.6334
2023-04-15T05:49:47.434Z,0.6324
2023-04-15T05:50:48.822Z,0.6324
2023-04-15T05:51:50.301Z,0.6324
2023-04-15T05:52:51.688Z,0.6316
2023-04-15T05:53:53.161Z,0.6316
2023-04-15T05:54:54.952Z,0.6322
2023-04-15T05:55:56.002Z,0.6315
2023-04-15T05:56:57.545Z,0.6321
2023-04-15T05:57:58.887Z,0.6333
2023-04-15T05:59:00.592Z,0.6334
2023-04-15T06:00:01.805Z,0.6315
2023-04-15T06:01:03.299Z,0.6306
2023-04-15T06:02:04.825Z,0.6303
2023-04-15T06:03:06.198Z,0.6303
2023-04-15T06:04:07.615Z,0.6299
2023-04-15T06:05:09.017Z,0.6309
2023-04-15T06:06:10.362Z,0.6315
2023-04-15T06:07:11.933Z,0.6315
2023-04-15T06:08:13.296Z,0.6317
2023-04-15T06:09:15.334Z,0.6318
2023-04-15T06:10:16.129Z,0.6314
2023-04-15T06:11:17.627Z,0.6304
2023-04-15T06:12:18.990Z,0.6290
2023-04-15T06:13:20.496Z,0.6298
2023-04-15T06:14:21.871Z,0.6303
2023-04-15T06:15:23.355Z,0.6303
2023-04-15T06:16:24.775Z,0.6290
2023-04-15T06:17:26.209Z,0.6279
2023-04-15T06:18:27.668Z,0.6279
2023-04-15T06:19:29.091Z,0.6284
2023-04-15T06:20:30.436Z,0.6278
2023-04-15T06:21:31.939Z,0.6291
2023-04-15T06:22:33.361Z,0.6281
2023-04-15T06:23:35.310Z,0.6271
2023-04-15T06:24:36.220Z,0.6273
2023-04-15T06:25:37.672Z,0.6265
2023-04-15T06:26:39.068Z,0.6245
2023-04-15T06:27:40.588Z,0.6242
2023-04-15T06:28:42.029Z,0.6237
2023-04-15T06:29:43.495Z,0.6228
2023-04-15T06:30:45.342Z,0.6218
2023-04-15T06:31:46.390Z,0.6206
2023-04-15T06:32:47.837Z,0.6196
2023-04-15T06:33:49.148Z,0.6191
2023-04-15T06:34:50.617Z,0.6182
2023-04-15T06:35:52.111Z,0.6181
2023-04-15T06:36:53.486Z,0.6141
2023-04-15T06:37:54.894Z,0.6123
2023-04-15T06:38:56.346Z,0.6118
2023-04-15T06:39:57.817Z,0.6121
2023-04-15T06:40:59.235Z,0.6108
2023-04-15T06:42:00.711Z,0.6105
2023-04-15T06:43:02.087Z,0.6090
2023-04-15T06:44:03.581Z,0.6074
2023-04-15T06:45:05.831Z,0.6081
2023-04-15T06:46:06.524Z,0.6086
2023-04-15T06:47:07.957Z,0.6092
2023-04-15T06:48:09.264Z,0.6102
2023-04-15T06:49:10.795Z,0.6085
2023-04-15T06:50:12.176Z,0.6073
2023-04-15T06:51:13.686Z,0.6074
2023-04-15T06:52:15.093Z,0.6061
2023-04-15T06:53:16.575Z,0.6040
2023-04-15T06:54:17.942Z,0.6038
2023-04-15T06:55:19.360Z,0.6038
2023-04-15T06:56:20.828Z,0.6022
2023-04-15T06:57:22.333Z,0.6023
2023-04-15T06:58:23.834Z,0.6023
2023-04-15T06:59:25.237Z,0.6023
2023-04-15T07:00:26.604Z,0.6010
2023-04-15T07:01:28.049Z,0.5993
2023-04-15T07:02:29.648Z,0.5993
2023-04-15T07:03:32.623Z,0.6006
2023-04-15T07:04:32.384Z,0.6010
2023-04-15T07:05:33.812Z,0.6015
2023-04-15T07:06:35.153Z,0.6003
2023-04-15T07:07:36.673Z,0.5996
2023-04-15T07:08:38.094Z,0.5992
2023-04-15T07:09:39.538Z,0.5991
2023-04-15T07:10:40.907Z,0.6001
2023-04-15T07:11:42.451Z,0.6003
2023-04-15T07:12:44.308Z,0.5998
2023-04-15T07:13:45.345Z,0.5998
2023-04-15T07:14:46.681Z,0.5998
2023-04-15T07:15:48.137Z,0.5998
2023-04-15T07:16:49.573Z,0.5998
2023-04-15T07:17:51.030Z,0.5998
2023-04-15T07:18:52.524Z,0.5995
2023-04-15T07:19:53.956Z,0.5992
2023-04-15T07:20:55.343Z,0.5993
2023-04-15T07:21:56.795Z,0.6003
2023-04-15T07:22:58.175Z,0.6001
2023-04-15T07:23:59.708Z,0.5996
2023-04-15T07:25:01.289Z,0.5987
2023-04-15T07:26:02.538Z,0.5977
2023-04-15T07:27:03.944Z,0.5967
2023-04-15T07:28:05.415Z,0.5967
2023-04-15T07:29:06.849Z,0.5968
2023-04-15T07:30:08.336Z,0.5977
2023-04-15T07:31:09.748Z,0.5984
2023-04-15T07:32:11.146Z,0.5989
2023-04-15T07:33:12.562Z,0.5991
2023-04-15T07:34:14.085Z,0.5992
2023-04-15T07:35:15.477Z,0.5990
2023-04-15T07:36:16.938Z,0.5981
2023-04-15T07:37:18.312Z,0.5984
2023-04-15T07:38:19.843Z,0.5978
2023-04-15T07:39:21.296Z,0.5993
2023-04-15T07:40:22.798Z,0.6005
2023-04-15T07:41:24.083Z,0.6005
2023-04-15T07:42:25.485Z,0.6000
2023-04-15T07:43:26.891Z,0.5986
2023-04-15T07:44:28.368Z,0.5982
2023-04-15T07:45:30.289Z,0.5991
2023-04-15T07:46:31.254Z,0.5995
2023-04-15T07:47:32.695Z,0.5993
2023-04-15T07:48:35.501Z,0.5983
2023-04-15T07:49:35.523Z,0.5987
2023-04-15T07:50:37.025Z,0.6002
2023-04-15T07:51:38.413Z,0.5989
2023-04-15T07:52:39.922Z,0.5975
2023-04-15T07:53:41.329Z,0.5978
2023-04-15T07:54:42.945Z,0.5967
2023-04-15T07:55:44.197Z,0.5966
2023-04-15T07:56:45.697Z,0.5966
2023-04-15T07:57:47.007Z,0.5960
2023-04-15T07:58:48.551Z,0.5963
2023-04-15T07:59:50.326Z,0.5950
2023-04-15T08:00:51.395Z,0.5935
2023-04-15T08:01:52.849Z,0.5923
2023-04-15T08:02:54.488Z,0.5915
2023-04-15T08:03:55.924Z,0.5915
2023-04-15T08:04:57.385Z,0.5916
2023-04-15T08:05:58.640Z,0.5917
2023-04-15T08:07:00.030Z,0.5917
2023-04-15T08:08:01.488Z,0.5919
2023-04-15T08:09:03.130Z,0.5911
2023-04-15T08:10:04.412Z,0.5903
2023-04-15T08:11:05.809Z,0.5898
2023-04-15T08:12:07.223Z,0.5879
2023-04-15T08:13:08.636Z,0.5862
2023-04-15T08:14:10.139Z,0.5850
2023-04-15T08:15:11.507Z,0.5848
2023-04-15T08:16:13.067Z,0.5851
2023-04-15T08:17:14.760Z,0.5859
2023-04-15T08:18:15.978Z,0.5862
2023-04-15T08:19:17.410Z,0.5862
2023-04-15T08:20:18.813Z,0.5853
2023-04-15T08:21:20.293Z,0.5855
2023-04-15T08:22:22.418Z,0.5843
2023-04-15T08:23:23.162Z,0.5843
2023-04-15T08:24:24.595Z,0.5846
2023-04-15T08:25:26.067Z,0.5842
2023-04-15T08:26:27.523Z,0.5839
2023-04-15T08:27:29.000Z,0.5828
2023-04-15T08:28:30.354Z,0.5827
2023-04-15T08:29:31.767Z,0.5815
2023-04-15T08:30:33.215Z,0.5800
2023-04-15T08:31:34.833Z,0.5784
2023-04-15T08:32:36.173Z,0.5777
2023-04-15T08:33:37.549Z,0.5769
2023-04-15T08:34:38.948Z,0.5756
2023-04-15T08:35:40.467Z,0.5752
2023-04-15T08:36:41.896Z,0.5752
2023-04-15T08:37:43.372Z,0.5754
2023-04-15T08:38:44.736Z,0.5752
2023-04-15T08:39:46.183Z,0.5731
2023-04-15T08:40:47.684Z,0.5721
2023-04-15T08:41:49.121Z,0.5736
2023-04-15T08:42:50.898Z,0.5739
2023-04-15T08:43:51.932Z,0.5743
2023-04-15T08:44:53.443Z,0.5750
2023-04-15T08:45:54.822Z,0.5760
2023-04-15T08:46:56.331Z,0.5762
2023-04-15T08:47:57.803Z,0.5762
2023-04-15T08:48:59.263Z,0.5754
2023-04-15T08:50:00.597Z,0.5752
2023-04-15T08:51:02.112Z,0.5760
2023-04-15T08:52:03.516Z,0.5770
2023-04-15T08:53:05.002Z,0.5777
2023-04-15T08:54:06.352Z,0.5792
2023-04-15T08:55:07.806Z,0.5800
2023-04-15T08:56:09.261Z,0.5801
2023-04-15T08:57:10.731Z,0.5807
2023-04-15T08:58:12.186Z,0.5812
2023-04-15T08:59:13.537Z,0.5809
2023-04-15T09:00:15.104Z,0.5811
2023-04-15T09:01:16.572Z,0.5806
2023-04-15T09:02:18.199Z,0.5794
2023-04-15T09:03:19.513Z,0.5796
2023-04-15T09:04:20.927Z,0.5795
2023-04-15T09:05:22.301Z,0.5817
2023-04-15T09:06:23.782Z,0.5830
2023-04-15T09:07:25.360Z,0.5823
2023-04-15T09:08:26.763Z,0.5823
2023-04-15T09:09:28.042Z,0.5819
2023-04-15T09:10:29.555Z,0.5813
2023-04-15T09:11:30.995Z,0.5808
2023-04-15T09:12:32.475Z,0.5812
2023-04-15T09:13:33.907Z,0.5815
2023-04-15T09:14:35.355Z,0.5806
2023-04-15T09:15:36.689Z,0.5795
2023-04-15T09:16:38.206Z,0.5792
2023-04-15T09:17:39.662Z,0.5783
2023-04-15T09:18:41.134Z,0.5772
2023-04-15T09:19:42.463Z,0.5771
2023-04-15T09:20:43.945Z,0.5771
2023-04-15T09:21:45.349Z,0.5782
2023-04-15T09:22:46.932Z,0.5793
2023-04-15T09:23:48.241Z,0.5793
2023-04-15T09:24:49.680Z,0.5795
2023-04-15T09:25:51.081Z,0.5804
2023-04-15T09:26:52.554Z,0.5806
2023-04-15T09:27:54.006Z,0.5796
2023-04-15T09:28:55.565Z,0.5787
2023-04-15T09:29:56.929Z,0.5788
2023-04-15T09:30:58.335Z,0.5790
2023-04-15T09:31:59.721Z,0.5795
2023-04-15T09:33:01.278Z,0.5789
2023-04-15T09:34:02.879Z,0.5778
2023-04-15T09:35:06.889Z,0.5770
2023-04-15T09:36:05.485Z,0.5783
2023-04-15T09:37:07.813Z,0.5783
2023-04-15T09:38:08.453Z,0.5786
2023-04-15T09:39:09.941Z,0.5783
2023-04-15T09:40:11.839Z,0.5786
2023-04-15T09:41:12.778Z,0.5791
2023-04-15T09:42:14.149Z,0.5791
2023-04-15T09:43:15.663Z,0.5789
2023-04-15T09:44:17.021Z,0.5785
2023-04-15T09:45:18.486Z,0.5792
2023-04-15T09:46:19.923Z,0.5790
2023-04-15T09:47:21.423Z,0.5790
2023-04-15T09:48:22.790Z,0.5787
2023-04-15T09:49:24.306Z,0.5780
2023-04-15T09:50:25.661Z,0.5780
2023-04-15T09:51:27.113Z,0.5780
2023-04-15T09:52:28.541Z,0.5792
2023-04-15T09:53:31.856Z,0.5799
2023-04-15T09:54:31.502Z,0.5792
2023-04-15T09:55:32.888Z,0.5792
2023-04-15T09:56:34.299Z,0.5800
2023-04-15T09:57:35.757Z,0.5808
2023-04-15T09:58:37.217Z,0.5798
2023-04-15T09:59:38.749Z,0.5798
2023-04-15T10:00:40.103Z,0.5803
2023-04-15T10:01:41.612Z,0.5808
2023-04-15T10:02:43.077Z,0.5812
2023-04-15T10:03:44.576Z,0.5805
2023-04-15T10:04:45.842Z,0.5805
2023-04-15T10:05:47.302Z,0.5805
2023-04-15T10:06:48.724Z,0.5805
2023-04-15T10:07:50.190Z,0.5800
2023-04-15T10:08:51.674Z,0.5796
2023-04-15T10:09:53.146Z,0.5792
2023-04-15T10:10:54.474Z,0.5791
2023-04-15T10:11:55.962Z,0.5772
2023-04-15T10:12:57.343Z,0.5771
2023-04-15T10:13:58.923Z,0.5761
2023-04-15T10:15:00.267Z,0.5763
2023-04-15T10:16:01.737Z,0.5769
2023-04-15T10:17:03.119Z,0.5773
2023-04-15T10:18:04.597Z,0.5762
2023-04-15T10:19:06.003Z,0.5757
2023-04-15T10:20:07.490Z,0.5757
2023-04-15T10:21:08.844Z,0.5762
2023-04-15T10:22:10.312Z,0.5755
2023-04-15T10:23:12.890Z,0.5755
2023-04-15T10:24:13.300Z,0.5755
2023-04-15T10:25:14.625Z,0.5755
2023-04-15T10:26:16.074Z,0.5747
2023-04-15T10:27:17.470Z,0.5749
2023-04-15T10:28:18.938Z,0.5763
2023-04-15T10:29:20.438Z,0.5766
2023-04-15T10:30:21.838Z,0.5756
2023-04-15T10:31:23.221Z,0.5748
2023-04-15T10:32:24.736Z,0.5741
2023-04-15T10:33:26.122Z,0.5736
2023-04-15T10:34:27.603Z,0.5736
2023-04-15T10:35:28.973Z,0.5736
2023-04-15T10:36:30.423Z,0.5741
2023-04-15T10:37:31.918Z,0.5753
2023-04-15T10:38:33.312Z,0.5747
2023-04-15T10:39:34.836Z,0.5742
2023-04-15T10:40:36.220Z,0.5742
2023-04-15T10:41:37.585Z,0.5742
2023-04-15T10:42:39.104Z,0.5742
2023-04-15T10:43:40.460Z,0.5742
2023-04-15T10:44:41.933Z,0.5737
2023-04-15T10:45:43.415Z,0.5732
2023-04-15T10:46:44.790Z,0.5724
2023-04-15T10:47:46.265Z,0.5729
2023-04-15T10:48:47.622Z,0.5726
2023-04-15T10:49:49.194Z,0.5719
2023-04-15T10:50:50.582Z,0.5719
2023-04-15T10:51:51.976Z,0.5719
2023-04-15T10:52:53.403Z,0.5719
2023-04-15T10:53:54.852Z,0.5719
2023-04-15T10:54:56.341Z,0.5719
2023-04-15T10:55:57.774Z,0.5719
2023-04-15T10:56:59.141Z,0.5719
2023-04-15T10:58:00.613Z,0.5719
2023-04-15T10:59:02.012Z,0.5719
2023-04-15T11:00:03.525Z,0.5719
2023-04-15T11:01:05.488Z,0.5719
2023-04-15T11:02:06.437Z,0.5719
2023-04-15T11:03:07.991Z,0.5711
2023-04-15T11:04:09.362Z,0.5709
2023-04-15T11:05:10.645Z,0.5705
2023-04-15T11:06:12.128Z,0.5697
2023-04-15T11:07:13.499Z,0.5692
2023-04-15T11:08:14.952Z,0.5692
2023-04-15T11:09:16.361Z,0.5692
2023-04-15T11:10:17.922Z,0.5696
2023-04-15T11:11:19.271Z,0.5687
2023-04-15T11:12:21.371Z,0.5687
2023-04-15T11:13:22.121Z,0.5690
2023-04-15T11:14:23.593Z,0.5696
2023-04-15T11:15:25.060Z,0.5698
2023-04-15T11:16:26.980Z,0.5696
2023-04-15T11:17:27.966Z,0.5690
2023-04-15T11:18:29.338Z,0.5686
2023-04-15T11:19:30.803Z,0.5677
2023-04-15T11:20:32.239Z,0.5676
2023-04-15T11:21:33.684Z,0.5684
2023-04-15T11:22:35.070Z,0.5683
2023-04-15T11:23:36.523Z,0.5680
2023-04-15T11:24:37.958Z,0.5683
2023-04-15T11:25:39.427Z,0.5683
2023-04-15T11:26:40.875Z,0.5672
2023-04-15T11:27:42.230Z,0.5672
2023-04-15T11:28:43.731Z,0.5663
2023-04-15T11:29:45.117Z,0.5664
2023-04-15T11:30:46.645Z,0.5661
2023-04-15T11:31:48.071Z,0.5658
2023-04-15T11:32:49.515Z,0.5660
2023-04-15T11:33:50.872Z,0.5660
2023-04-15T11:34:52.344Z,0.5663
2023-04-15T11:35:53.791Z,0.5677
2023-04-15T11:36:55.263Z,0.5678
2023-04-15T11:37:56.683Z,0.5675
2023-04-15T11:38:58.086Z,0.5669
2023-04-15T11:39:59.506Z,0.5665
2023-04-15T11:41:01.012Z,0.5661
2023-04-15T11:42:02.406Z,0.5665
2023-04-15T11:43:03.839Z,0.5646
2023-04-15T11:44:05.391Z,0.5644
2023-04-15T11:45:06.745Z,0.5644
2023-04-15T11:46:08.291Z,0.5644
2023-04-15T11:47:09.649Z,0.5644
2023-04-15T11:48:11.075Z,0.5642
2023-04-15T11:49:12.489Z,0.5654
2023-04-15T11:50:13.884Z,0.5654
2023-04-15T11:51:15.435Z,0.5639
2023-04-15T11:52:16.826Z,0.5639
2023-04-15T11:53:18.261Z,0.5639
2023-04-15T11:54:19.659Z,0.5640
2023-04-15T11:55:21.138Z,0.5628
2023-04-15T11:56:22.622Z,0.5618
2023-04-15T11:57:24.003Z,0.5618
2023-04-15T11:58:25.394Z,0.5621
2023-04-15T11:59:39.012Z,0.5623
2023-04-15T12:00:28.317Z,0.5628
2023-04-15T12:01:29.748Z,0.5634
2023-04-15T12:02:31.440Z,0.5634
2023-04-15T12:03:33.576Z,0.5640
2023-04-15T12:04:34.183Z,0.5648
2023-04-15T12:05:35.480Z,0.5654
2023-04-15T12:06:37.034Z,0.5663
2023-04-15T12:07:38.398Z,0.5663
2023-04-15T12:08:39.865Z,0.5657
2023-04-15T12:09:41.212Z,0.5651
2023-04-15T12:10:42.666Z,0.5647
2023-04-15T12:11:44.119Z,0.5641
2023-04-15T12:12:45.613Z,0.5643
2023-04-15T12:13:46.975Z,0.5643
2023-04-15T12:14:48.449Z,0.5642
2023-04-15T12:15:49.861Z,0.5632
2023-04-15T12:16:51.954Z,0.5631
2023-04-15T12:17:52.792Z,0.5634
2023-04-15T12:18:54.196Z,0.5635
2023-04-15T12:19:55.656Z,0.5642
2023-04-15T12:20:57.126Z,0.5631
2023-04-15T12:22:00.053Z,0.5623
2023-04-15T12:22:59.999Z,0.5626
2023-04-15T12:24:01.385Z,0.5630
2023-04-15T12:25:02.846Z,0.5638
2023-04-15T12:26:04.249Z,0.5640
2023-04-15T12:27:05.881Z,0.5631
2023-04-15T12:28:07.177Z,0.5616
2023-04-15T12:29:08.632Z,0.5606
2023-04-15T12:30:10.018Z,0.5606
2023-04-15T12:31:11.574Z,0.5606
2023-04-15T12:32:13.004Z,0.5608
2023-04-15T12:33:14.455Z,0.5610
2023-04-15T12:34:15.771Z,0.5613
2023-04-15T12:35:17.367Z,0.5613
2023-04-15T12:36:18.665Z,0.5597
2023-04-15T12:37:20.209Z,0.5598
2023-04-15T12:38:21.685Z,0.5611
2023-04-15T12:39:22.968Z,0.5612
2023-04-15T12:40:24.557Z,0.5585
2023-04-15T12:41:25.833Z,0.5582
2023-04-15T12:42:27.344Z,0.5574
2023-04-15T12:43:28.824Z,0.5578
2023-04-15T12:44:30.301Z,0.5584
2023-04-15T12:45:31.649Z,0.5580
2023-04-15T12:46:33.160Z,0.5583